Bartolomeu Lisandro Airport
SBCP : now visible

Airfield :











YOU CAN JOIN US ON...

 
LOGIN :

Register | Disclaimer

   EN    FR    IT 

 









Legend :    VFR   Marginal VFR   IFR   Intensive IFR   Very Intensive IFR
Visi :
Ceiling :
>= 8 km
>= 3000ft
5 to 8 km
1000 to 3000 ft
1500m to 5 km
500 to 1000 ft
800 to 1500m
200 to 500 ft
< 800m
< 200 ft
Symbols :   Thunderstorms  Fog  Heavy snow  Heavy precipitations  Wind > 20 kt






- Airport Elevation : 57 ft
- IATA code : CAW


SBCP - Bartolomeu Lisandro

CURRENT METAR :
  • 271600Z 24004KT CAVOK 26/13 Q1015

EXPIRED METARs :
  • 271500Z 24004KT CAVOK 25/12 Q1015
  • 271400Z 00000KT CAVOK 23/14 Q1016

TAF TAF SBCP
Valid from the 27 at 12:00 until the 28 at 00:00 UTC


270900Z 2712/2724 00000KT CAVOK TX26/2718Z TN22/2721Z
BECMG 2713/2715 20005KT
BECMG 2717/2718 34005KT
BECMG 2719/2721 20008KT RMK PAY
SBCW FIR / South America



MET'MAP, your aeronautical weather chart ! - Copyright ORBIFLY December 2007 - Disclaimer

ORBIFLY MET'MAP TEAM :

Programming & Development : Alexandra Zaïnal
Concept & original design : Baudouin d'Aumeries
Assistance for programming : Marc-Olivier Méhu
Technical & hardware support : Manuel Goepfert

Contact : metmap@orbifly.com




SOURCES & CREDITS :

   NOAA       Earth
Advisory